createdAt,value
2018-08-16T00:01:34.440Z,21.00
2018-08-16T00:04:03.049Z,21.00
2018-08-16T00:06:31.668Z,20.90
2018-08-16T00:09:00.260Z,20.90
2018-08-16T00:11:28.844Z,20.90
2018-08-16T00:13:57.465Z,20.90
2018-08-16T00:16:26.111Z,20.80
2018-08-16T00:18:54.790Z,20.80
2018-08-16T00:21:23.365Z,20.80
2018-08-16T00:23:51.926Z,20.80
2018-08-16T00:26:20.511Z,20.80
2018-08-16T00:28:49.386Z,20.80
2018-08-16T00:31:18.153Z,20.70
2018-08-16T00:33:46.806Z,20.80
2018-08-16T00:36:15.542Z,20.70
2018-08-16T00:38:44.536Z,20.70
2018-08-16T00:41:13.116Z,20.70
2018-08-16T00:43:41.695Z,20.70
2018-08-16T00:46:10.492Z,20.70
2018-08-16T00:48:39.076Z,20.60
2018-08-16T00:51:07.630Z,20.60
2018-08-16T00:53:36.211Z,20.60
2018-08-16T00:56:04.785Z,20.60
2018-08-16T00:58:33.358Z,20.60
2018-08-16T01:01:01.905Z,20.60
2018-08-16T01:03:30.523Z,20.60
2018-08-16T01:05:59.140Z,20.60
2018-08-16T01:08:27.700Z,20.50
2018-08-16T01:10:56.225Z,20.50
2018-08-16T01:13:24.789Z,20.50
2018-08-16T01:15:53.329Z,20.50
2018-08-16T01:18:21.914Z,20.50
2018-08-16T01:20:50.497Z,20.50
2018-08-16T01:23:19.103Z,20.50
2018-08-16T01:25:47.629Z,20.40
2018-08-16T01:28:16.194Z,20.40
2018-08-16T01:30:44.736Z,20.40
2018-08-16T01:33:13.304Z,20.40
2018-08-16T01:35:41.912Z,20.40
2018-08-16T01:38:10.523Z,20.40
2018-08-16T01:40:39.016Z,20.30
2018-08-16T01:43:07.642Z,20.30
2018-08-16T01:45:36.204Z,20.30
2018-08-16T01:48:04.758Z,20.30
2018-08-16T01:50:33.308Z,20.30
2018-08-16T01:53:01.873Z,20.30
2018-08-16T01:55:30.474Z,20.20
2018-08-16T01:57:59.005Z,20.20
2018-08-16T02:00:27.613Z,20.20
2018-08-16T02:02:56.246Z,20.20
2018-08-16T02:05:24.888Z,20.20
2018-08-16T02:07:53.484Z,20.20
2018-08-16T02:10:21.999Z,20.20
2018-08-16T02:12:50.548Z,20.20
2018-08-16T02:15:19.102Z,20.10
2018-08-16T02:17:47.637Z,20.10
2018-08-16T02:20:16.256Z,20.10
2018-08-16T02:22:44.882Z,20.10
2018-08-16T02:25:13.504Z,20.10
2018-08-16T02:27:42.053Z,20.00
2018-08-16T02:30:11.397Z,20.00
2018-08-16T02:32:40.317Z,20.00
2018-08-16T02:35:09.160Z,20.00
2018-08-16T02:37:37.761Z,20.00
2018-08-16T02:40:07.770Z,20.00
2018-08-16T02:42:36.290Z,20.00
2018-08-16T02:45:04.892Z,20.00
2018-08-16T02:47:33.463Z,20.00
2018-08-16T02:50:02.260Z,19.90
2018-08-16T02:52:30.808Z,19.90
2018-08-16T02:54:59.378Z,19.90
2018-08-16T02:57:27.915Z,19.90
2018-08-16T02:59:56.476Z,19.80
2018-08-16T03:02:25.003Z,19.80
2018-08-16T03:04:53.614Z,19.80
2018-08-16T03:07:22.253Z,19.90
2018-08-16T03:09:50.806Z,19.80
2018-08-16T03:12:19.339Z,19.80
2018-08-16T03:14:47.922Z,19.80
2018-08-16T03:17:16.449Z,19.80
2018-08-16T03:19:44.986Z,19.80
2018-08-16T03:22:13.522Z,19.70
2018-08-16T03:24:42.068Z,19.70
2018-08-16T03:27:10.574Z,19.70
2018-08-16T03:29:39.094Z,19.70
2018-08-16T03:32:07.708Z,19.70
2018-08-16T03:34:36.217Z,19.70
2018-08-16T03:37:04.828Z,19.70
2018-08-16T03:39:33.409Z,19.60
2018-08-16T03:42:02.183Z,19.60
2018-08-16T03:44:30.972Z,19.60
2018-08-16T03:46:59.526Z,19.60
2018-08-16T03:49:28.044Z,19.50
2018-08-16T03:51:56.542Z,19.50
2018-08-16T03:54:25.100Z,19.60
2018-08-16T03:56:53.618Z,19.50
2018-08-16T03:59:22.146Z,19.50
2018-08-16T04:01:50.680Z,19.50
2018-08-16T04:04:19.218Z,19.50
2018-08-16T04:06:47.714Z,19.40
2018-08-16T04:09:16.244Z,19.40
2018-08-16T04:11:44.808Z,19.40
2018-08-16T04:14:13.333Z,19.40
2018-08-16T04:16:41.919Z,19.40
2018-08-16T04:19:10.489Z,19.40
2018-08-16T04:21:39.082Z,19.40
2018-08-16T04:24:07.603Z,19.40
2018-08-16T04:26:36.148Z,19.30
2018-08-16T04:29:04.788Z,19.30
2018-08-16T04:31:33.362Z,19.30
2018-08-16T04:34:01.917Z,19.30
2018-08-16T04:36:30.478Z,19.30
2018-08-16T04:38:58.994Z,19.20
2018-08-16T04:41:27.539Z,19.30
2018-08-16T04:43:56.107Z,19.20
2018-08-16T04:46:24.678Z,19.20
2018-08-16T04:48:53.241Z,19.20
2018-08-16T04:51:24.037Z,19.20
2018-08-16T04:53:52.572Z,19.20
2018-08-16T04:56:21.134Z,19.20
2018-08-16T04:58:49.688Z,19.10
2018-08-16T05:01:18.297Z,19.20
2018-08-16T05:03:46.857Z,19.10
2018-08-16T05:06:15.410Z,19.10
2018-08-16T05:08:43.969Z,19.10
2018-08-16T05:11:12.592Z,19.10
2018-08-16T05:13:41.063Z,19.10
2018-08-16T05:16:09.600Z,19.10
2018-08-16T05:18:38.129Z,19.10
2018-08-16T05:21:06.833Z,19.10
2018-08-16T05:23:35.383Z,19.10
2018-08-16T05:26:04.039Z,19.10
2018-08-16T05:28:32.530Z,19.10
2018-08-16T05:31:01.107Z,19.10
2018-08-16T05:33:29.623Z,19.10
2018-08-16T05:35:58.165Z,19.10
2018-08-16T05:38:26.718Z,19.10
2018-08-16T05:40:55.288Z,19.10
2018-08-16T05:43:23.923Z,19.10
2018-08-16T05:45:52.435Z,19.10
2018-08-16T05:48:21.136Z,19.10
2018-08-16T05:50:49.761Z,19.10
2018-08-16T05:53:18.214Z,19.10
2018-08-16T05:55:46.771Z,19.10
2018-08-16T05:58:15.350Z,19.10
2018-08-16T06:00:43.890Z,19.10
2018-08-16T06:03:12.417Z,19.20
2018-08-16T06:05:40.972Z,19.20
2018-08-16T06:08:09.552Z,19.20
2018-08-16T06:10:38.101Z,19.10
2018-08-16T06:13:07.081Z,19.20
2018-08-16T06:15:35.703Z,19.10
2018-08-16T06:18:04.234Z,19.10
2018-08-16T06:20:32.771Z,19.20
2018-08-16T06:23:01.376Z,19.20
2018-08-16T06:25:29.932Z,19.20
2018-08-16T06:27:58.482Z,19.20
2018-08-16T06:30:27.127Z,19.20
2018-08-16T06:32:55.688Z,19.30
2018-08-16T06:35:24.262Z,19.30
2018-08-16T06:37:52.900Z,19.30
2018-08-16T06:40:21.482Z,19.30
2018-08-16T06:42:50.029Z,19.30
2018-08-16T06:45:18.595Z,19.30
2018-08-16T06:47:47.255Z,19.30
2018-08-16T06:50:15.836Z,19.30
2018-08-16T06:52:47.243Z,19.30
2018-08-16T06:58:15.367Z,19.30
2018-08-16T07:00:43.910Z,19.30
2018-08-16T07:03:12.463Z,19.40
2018-08-16T07:05:41.252Z,19.40
2018-08-16T07:08:10.166Z,19.40
2018-08-16T07:10:38.734Z,19.40
2018-08-16T07:13:07.485Z,19.40
2018-08-16T07:15:36.119Z,19.40
2018-08-16T07:18:04.744Z,19.40
2018-08-16T07:20:33.282Z,19.40
2018-08-16T07:23:01.881Z,19.40
2018-08-16T07:25:30.562Z,19.40
2018-08-16T07:27:59.170Z,19.40
2018-08-16T07:30:27.760Z,19.40
2018-08-16T07:32:56.321Z,19.40
2018-08-16T07:35:24.853Z,19.40
2018-08-16T07:37:53.497Z,19.40
2018-08-16T07:40:22.168Z,19.40
2018-08-16T07:42:50.982Z,19.50
2018-08-16T07:45:19.632Z,19.40
2018-08-16T07:47:48.225Z,19.50
2018-08-16T07:50:16.866Z,19.50
2018-08-16T07:52:45.497Z,19.50
2018-08-16T07:55:14.047Z,19.50
2018-08-16T07:57:42.635Z,19.50
2018-08-16T08:00:17.610Z,19.50
2018-08-16T08:02:46.513Z,19.50
2018-08-16T08:05:15.155Z,19.50
2018-08-16T08:07:43.864Z,19.50
2018-08-16T08:10:12.459Z,19.60
2018-08-16T08:12:41.050Z,19.60
2018-08-16T08:15:12.367Z,19.60
2018-08-16T08:17:41.303Z,19.60
2018-08-16T08:20:12.611Z,19.60
2018-08-16T08:22:41.721Z,19.60
2018-08-16T08:25:10.405Z,19.70
2018-08-16T08:27:38.939Z,19.60
2018-08-16T08:30:10.960Z,19.70
2018-08-16T08:32:39.838Z,19.70
2018-08-16T08:35:08.411Z,19.70
2018-08-16T08:37:48.241Z,19.70
2018-08-16T08:40:17.157Z,19.70
2018-08-16T08:42:45.701Z,19.70
2018-08-16T08:45:14.213Z,19.70
2018-08-16T08:47:47.012Z,19.80
2018-08-16T08:50:16.033Z,19.70
2018-08-16T08:52:44.664Z,19.80
2018-08-16T08:55:24.443Z,19.80
2018-08-16T08:58:58.150Z,19.80
2018-08-16T09:01:27.351Z,19.80
2018-08-16T09:03:55.885Z,19.80
2018-08-16T09:06:24.390Z,19.90
2018-08-16T09:08:52.920Z,19.80
2018-08-16T09:11:32.662Z,19.90
2018-08-16T09:14:12.282Z,19.90
2018-08-16T09:16:41.981Z,19.90
2018-08-16T09:19:11.411Z,20.00
2018-08-16T09:21:39.990Z,20.00
2018-08-16T09:24:08.651Z,20.00
2018-08-16T09:26:40.021Z,20.00
2018-08-16T09:29:19.933Z,20.00
2018-08-16T09:31:59.626Z,20.10
2018-08-16T09:34:28.266Z,20.10
2018-08-16T09:36:56.804Z,20.10
2018-08-16T09:39:25.475Z,20.10
2018-08-16T09:41:53.974Z,20.20
2018-08-16T09:44:22.561Z,20.30
2018-08-16T09:47:11.825Z,20.30
2018-08-16T09:49:50.834Z,20.40
2018-08-16T09:52:20.228Z,20.50
2018-08-16T09:54:49.586Z,20.50
2018-08-16T09:57:18.502Z,20.60
2018-08-16T09:59:47.094Z,20.60
2018-08-16T10:02:17.458Z,20.70
2018-08-16T10:04:45.999Z,20.80
2018-08-16T10:07:14.573Z,20.90
2018-08-16T10:09:43.141Z,21.00
2018-08-16T10:12:11.686Z,21.10
2018-08-16T10:14:40.267Z,21.20
2018-08-16T10:17:08.864Z,21.30
2018-08-16T10:19:38.059Z,21.40
2018-08-16T10:22:06.683Z,21.60
2018-08-16T10:24:35.282Z,21.60
2018-08-16T10:27:04.846Z,21.90
2018-08-16T10:29:33.463Z,22.20
2018-08-16T10:32:02.043Z,22.40
2018-08-16T10:34:30.638Z,22.50
2018-08-16T10:36:59.216Z,22.60
2018-08-16T10:39:27.736Z,22.80
2018-08-16T10:41:56.271Z,22.90
2018-08-16T10:44:24.802Z,23.00
2018-08-16T10:46:53.389Z,23.10
2018-08-16T10:49:21.905Z,23.30
2018-08-16T10:51:50.479Z,23.30
2018-08-16T10:54:19.630Z,23.50
2018-08-16T10:56:48.200Z,23.70
2018-08-16T10:59:16.759Z,23.80
2018-08-16T11:01:45.352Z,23.80
2018-08-16T11:04:13.910Z,23.90
2018-08-16T11:06:42.499Z,24.00
2018-08-16T11:09:11.052Z,24.10
2018-08-16T11:11:40.090Z,24.10
2018-08-16T11:14:08.662Z,24.20
2018-08-16T11:16:37.250Z,24.30
2018-08-16T11:19:05.990Z,24.30
2018-08-16T11:21:34.612Z,24.40
2018-08-16T11:24:03.191Z,24.50
2018-08-16T11:26:31.790Z,24.60
2018-08-16T11:29:00.319Z,24.60
2018-08-16T11:31:28.926Z,24.70
2018-08-16T11:33:57.449Z,24.70
2018-08-16T11:36:26.023Z,24.90
2018-08-16T11:38:54.569Z,24.80
2018-08-16T11:41:23.131Z,25.00
2018-08-16T11:43:51.653Z,25.00
2018-08-16T11:46:20.225Z,25.00
2018-08-16T11:48:48.809Z,25.10
2018-08-16T11:51:17.416Z,25.20
2018-08-16T11:53:46.061Z,25.20
2018-08-16T11:56:14.623Z,25.20
2018-08-16T11:58:43.312Z,25.20
2018-08-16T12:01:11.776Z,25.20
2018-08-16T12:03:40.305Z,25.30
2018-08-16T12:06:08.912Z,25.30
2018-08-16T12:08:37.471Z,25.30
2018-08-16T12:11:06.790Z,25.10
2018-08-16T12:13:35.313Z,25.10
2018-08-16T12:16:03.857Z,25.00
2018-08-16T12:18:32.433Z,25.00
2018-08-16T12:21:01.031Z,25.00
2018-08-16T12:23:29.587Z,24.90
2018-08-16T12:25:58.114Z,24.80
2018-08-16T12:28:26.674Z,24.80
2018-08-16T12:30:55.234Z,24.80
2018-08-16T12:33:23.781Z,24.80
2018-08-16T12:35:52.355Z,24.70
2018-08-16T12:38:20.894Z,24.70
2018-08-16T12:40:50.199Z,24.70
2018-08-16T12:43:18.279Z,24.60
2018-08-16T12:45:46.824Z,24.60
2018-08-16T12:48:15.370Z,25.90
2018-08-16T12:50:43.897Z,28.30
2018-08-16T12:53:12.426Z,29.70
2018-08-16T12:55:41.109Z,30.40
2018-08-16T12:58:09.637Z,30.70
2018-08-16T13:00:38.173Z,30.90
2018-08-16T13:03:06.908Z,31.10
2018-08-16T13:05:35.443Z,31.10
2018-08-16T13:08:04.119Z,31.10
2018-08-16T13:10:32.687Z,31.10
2018-08-16T13:13:01.231Z,31.10
2018-08-16T13:15:29.865Z,31.20
2018-08-16T13:17:58.416Z,31.10
2018-08-16T13:20:26.959Z,31.00
2018-08-16T13:22:56.503Z,31.00
2018-08-16T13:25:25.023Z,31.00
2018-08-16T13:27:54.520Z,30.90
2018-08-16T13:30:23.124Z,30.90
2018-08-16T13:32:52.006Z,30.90
2018-08-16T13:35:20.860Z,30.80
2018-08-16T13:37:50.323Z,30.60
2018-08-16T13:40:18.840Z,30.70
2018-08-16T13:42:47.369Z,30.70
2018-08-16T13:45:16.559Z,30.60
2018-08-16T13:47:45.121Z,30.60
2018-08-16T13:50:13.651Z,30.50
2018-08-16T13:52:42.268Z,30.50
2018-08-16T13:55:10.825Z,30.50
2018-08-16T13:57:39.643Z,30.40
2018-08-16T14:00:09.360Z,30.40
2018-08-16T14:02:37.929Z,30.50
2018-08-16T14:05:06.756Z,30.30
2018-08-16T14:07:35.581Z,30.30
2018-08-16T14:10:05.839Z,30.30
2018-08-16T14:12:35.108Z,30.30
2018-08-16T14:15:05.528Z,30.30
2018-08-16T14:17:36.213Z,30.30
2018-08-16T14:20:05.795Z,30.30
2018-08-16T14:22:35.275Z,30.20
2018-08-16T14:25:05.891Z,30.20
2018-08-16T14:27:35.039Z,30.20
2018-08-16T14:30:03.702Z,30.20
2018-08-16T14:32:32.312Z,30.10
2018-08-16T14:35:00.823Z,30.10
2018-08-16T14:37:29.772Z,30.10
2018-08-16T14:39:58.488Z,30.10
2018-08-16T14:42:27.232Z,30.10
2018-08-16T14:44:55.787Z,30.00
2018-08-16T14:47:24.933Z,30.10
2018-08-16T14:49:53.686Z,30.10
2018-08-16T14:52:22.395Z,30.00
2018-08-16T14:54:50.938Z,30.00
2018-08-16T14:57:20.122Z,30.00
2018-08-16T14:59:48.730Z,30.00
2018-08-16T15:02:17.341Z,30.00
2018-08-16T15:04:46.026Z,29.80
2018-08-16T15:07:14.604Z,29.90
2018-08-16T15:09:43.290Z,29.90
2018-08-16T15:12:12.330Z,29.80
2018-08-16T15:14:40.973Z,29.80
2018-08-16T15:17:09.552Z,29.80
2018-08-16T15:19:38.090Z,29.80
2018-08-16T15:22:06.754Z,29.80
2018-08-16T15:24:35.341Z,29.70
2018-08-16T15:27:03.949Z,29.70
2018-08-16T15:29:32.542Z,29.70
2018-08-16T15:32:01.047Z,29.60
2018-08-16T15:34:29.893Z,29.60
2018-08-16T15:36:58.642Z,29.60
2018-08-16T15:39:27.350Z,29.60
2018-08-16T15:41:55.929Z,29.50
2018-08-16T15:44:24.684Z,29.50
2018-08-16T15:46:53.208Z,29.50
2018-08-16T15:49:21.887Z,29.40
2018-08-16T15:51:50.453Z,29.40
2018-08-16T15:54:18.999Z,29.30
2018-08-16T15:56:47.555Z,29.30
2018-08-16T15:59:16.147Z,29.30
2018-08-16T16:01:44.669Z,29.30
2018-08-16T16:04:13.244Z,29.20
2018-08-16T16:06:41.819Z,29.20
2018-08-16T16:09:11.069Z,29.10
2018-08-16T16:11:39.598Z,29.20
2018-08-16T16:14:08.173Z,29.20
2018-08-16T16:16:37.238Z,29.20
2018-08-16T16:19:05.781Z,29.10
2018-08-16T16:21:34.380Z,29.10
2018-08-16T16:24:02.921Z,29.10
2018-08-16T16:26:31.461Z,29.00
2018-08-16T16:28:59.997Z,29.00
2018-08-16T16:31:28.551Z,29.00
2018-08-16T16:33:57.322Z,28.90
2018-08-16T16:36:25.885Z,28.90
2018-08-16T16:38:54.459Z,28.90
2018-08-16T16:41:23.064Z,28.80
2018-08-16T16:43:51.623Z,28.80
2018-08-16T16:46:20.135Z,28.80
2018-08-16T16:48:48.690Z,28.80
2018-08-16T16:51:17.267Z,28.70
2018-08-16T16:53:45.792Z,28.70
2018-08-16T16:56:14.389Z,28.70
2018-08-16T16:58:42.898Z,28.70
2018-08-16T17:01:11.551Z,28.70
2018-08-16T17:03:40.131Z,28.60
2018-08-16T17:06:08.728Z,28.60
2018-08-16T17:08:37.252Z,28.60
2018-08-16T17:11:06.185Z,28.50
2018-08-16T17:13:34.812Z,28.50
2018-08-16T17:16:03.428Z,28.50
2018-08-16T17:18:32.238Z,28.40
2018-08-16T17:21:00.826Z,28.40
2018-08-16T17:23:29.613Z,28.40
2018-08-16T17:25:58.217Z,28.40
2018-08-16T17:28:26.750Z,28.30
2018-08-16T17:30:55.313Z,28.30
2018-08-16T17:33:23.974Z,28.30
2018-08-16T17:35:52.535Z,28.30
2018-08-16T17:38:21.119Z,28.20
2018-08-16T17:40:49.666Z,28.20
2018-08-16T17:43:18.574Z,28.20
2018-08-16T17:45:47.134Z,28.10
2018-08-16T17:48:15.716Z,28.10
2018-08-16T17:50:44.303Z,28.10
2018-08-16T17:53:12.919Z,28.00
2018-08-16T17:55:41.521Z,28.00
2018-08-16T17:58:10.401Z,28.00
2018-08-16T18:00:39.650Z,27.90
2018-08-16T18:03:08.279Z,27.90
2018-08-16T18:05:36.880Z,27.90
2018-08-16T18:08:05.433Z,27.90
2018-08-16T18:10:34.004Z,27.80
2018-08-16T18:13:02.529Z,27.80
2018-08-16T18:15:31.115Z,27.80
2018-08-16T18:17:59.654Z,27.80
2018-08-16T18:20:28.298Z,27.70
2018-08-16T18:22:56.847Z,27.70
2018-08-16T18:25:25.469Z,27.60
2018-08-16T18:27:53.979Z,27.60
2018-08-16T18:30:22.908Z,27.60
2018-08-16T18:32:51.417Z,27.50
2018-08-16T18:35:19.953Z,27.50
2018-08-16T18:37:48.538Z,27.50
2018-08-16T18:40:17.079Z,27.50
2018-08-16T18:42:45.621Z,27.50
2018-08-16T18:45:14.156Z,27.40
2018-08-16T18:47:42.687Z,27.40
2018-08-16T18:50:11.186Z,27.40
2018-08-16T18:52:39.709Z,27.30
2018-08-16T18:55:08.654Z,27.30
2018-08-16T18:57:37.193Z,27.30
2018-08-16T19:00:07.479Z,27.20
2018-08-16T19:02:36.037Z,27.20
2018-08-16T19:05:05.055Z,27.20
2018-08-16T19:07:33.683Z,27.10
2018-08-16T19:10:02.747Z,27.10
2018-08-16T19:12:31.445Z,27.10
2018-08-16T19:14:59.963Z,27.10
2018-08-16T19:17:28.495Z,27.00
2018-08-16T19:19:57.079Z,27.00
2018-08-16T19:22:25.689Z,26.90
2018-08-16T19:24:54.266Z,26.90
2018-08-16T19:27:22.815Z,26.90
2018-08-16T19:29:51.432Z,26.90
2018-08-16T19:32:20.018Z,26.80
2018-08-16T19:34:48.602Z,26.80
2018-08-16T19:37:17.294Z,26.80
2018-08-16T19:39:45.868Z,26.80
2018-08-16T19:42:14.405Z,26.70
2018-08-16T19:44:43.009Z,26.70
2018-08-16T19:47:11.585Z,26.60
2018-08-16T19:49:40.135Z,26.60
2018-08-16T19:52:08.969Z,26.60
2018-08-16T19:54:37.636Z,26.50
2018-08-16T19:57:06.646Z,26.50
2018-08-16T19:59:35.242Z,26.50
2018-08-16T20:02:03.897Z,26.40
2018-08-16T20:04:32.426Z,26.40
2018-08-16T20:07:01.033Z,26.40
2018-08-16T20:09:29.580Z,26.30
2018-08-16T20:11:58.133Z,26.30
2018-08-16T20:14:26.706Z,26.30
2018-08-16T20:16:55.265Z,26.30
2018-08-16T20:19:23.873Z,26.20
2018-08-16T20:21:52.465Z,26.20
2018-08-16T20:24:21.281Z,26.20
2018-08-16T20:26:50.114Z,26.10
2018-08-16T20:29:18.682Z,26.10
2018-08-16T20:31:47.283Z,26.10
2018-08-16T20:34:15.834Z,26.10
2018-08-16T20:36:44.411Z,26.10
2018-08-16T20:39:12.986Z,26.00
2018-08-16T20:41:41.559Z,26.00
2018-08-16T20:44:10.881Z,25.90
2018-08-16T20:46:39.465Z,25.90
2018-08-16T20:49:08.355Z,25.90
2018-08-16T20:51:36.870Z,25.90
2018-08-16T20:54:06.334Z,25.80
2018-08-16T20:56:34.902Z,25.80
2018-08-16T20:59:03.521Z,25.70
2018-08-16T21:01:32.058Z,25.70
2018-08-16T21:04:00.622Z,25.70
2018-08-16T21:06:29.172Z,25.60
2018-08-16T21:08:57.711Z,25.60
2018-08-16T21:11:26.306Z,25.60
2018-08-16T21:13:54.873Z,25.60
2018-08-16T21:16:23.418Z,25.50
2018-08-16T21:18:51.957Z,25.50
2018-08-16T21:21:20.503Z,25.40
2018-08-16T21:23:49.063Z,25.40
2018-08-16T21:26:17.741Z,25.40
2018-08-16T21:28:46.265Z,25.40
2018-08-16T21:31:14.774Z,25.30
2018-08-16T21:33:43.292Z,25.30
2018-08-16T21:36:11.979Z,25.30
2018-08-16T21:38:40.514Z,25.30
2018-08-16T21:41:09.158Z,25.20
2018-08-16T21:43:37.724Z,25.20
2018-08-16T21:46:06.272Z,25.20
2018-08-16T21:48:34.795Z,25.10
2018-08-16T21:51:03.306Z,25.10
2018-08-16T21:53:31.898Z,25.10
2018-08-16T21:56:00.423Z,25.00
2018-08-16T21:58:28.987Z,25.00
2018-08-16T22:01:00.791Z,25.00
2018-08-16T22:03:29.694Z,25.00
2018-08-16T22:06:04.706Z,24.90
2018-08-16T22:08:47.042Z,24.90
2018-08-16T22:11:15.572Z,24.90
2018-08-16T22:13:44.142Z,24.80
2018-08-16T22:16:13.506Z,24.80
2018-08-16T22:18:42.082Z,24.80
2018-08-16T22:21:10.982Z,24.70
2018-08-16T22:23:39.686Z,24.70
2018-08-16T22:26:08.220Z,24.70
2018-08-16T22:28:36.796Z,24.70
2018-08-16T22:31:05.398Z,24.70
2018-08-16T22:33:33.982Z,24.60
2018-08-16T22:36:02.506Z,24.50
2018-08-16T22:38:31.049Z,24.50
2018-08-16T22:40:59.593Z,24.50
2018-08-16T22:43:28.139Z,24.50
2018-08-16T22:45:56.705Z,24.40
2018-08-16T22:48:25.509Z,24.40
2018-08-16T22:50:54.045Z,24.40
2018-08-16T22:53:22.601Z,24.30
2018-08-16T22:55:51.172Z,24.30
2018-08-16T22:58:19.779Z,24.30
2018-08-16T23:00:48.343Z,24.20
2018-08-16T23:03:16.892Z,24.20
2018-08-16T23:05:45.451Z,24.20
2018-08-16T23:08:14.037Z,24.20
2018-08-16T23:10:42.626Z,24.10
2018-08-16T23:13:11.218Z,24.10
2018-08-16T23:15:39.799Z,24.10
2018-08-16T23:18:08.446Z,24.10
2018-08-16T23:20:37.097Z,24.00
2018-08-16T23:23:06.002Z,24.00
2018-08-16T23:25:34.532Z,23.90
2018-08-16T23:28:03.075Z,23.90
2018-08-16T23:30:31.743Z,23.90
2018-08-16T23:33:00.266Z,23.90
2018-08-16T23:35:28.818Z,23.80
2018-08-16T23:37:57.335Z,23.80
2018-08-16T23:40:25.888Z,23.80
2018-08-16T23:42:54.414Z,23.80
2018-08-16T23:45:22.963Z,23.70
2018-08-16T23:48:02.778Z,23.70
2018-08-16T23:50:31.341Z,23.70
2018-08-16T23:52:59.962Z,23.60
2018-08-16T23:55:28.526Z,23.60
2018-08-16T23:57:57.060Z,23.60
